Time;durP1;ratioP1;P1;durP2;ratioP2;P2;SDS_P1;SDS_P2;PMS_P1;PMS_P2;Temp;Humidity;BMP_temperature;BMP_pressure;BME280_temperature;BME280_humidity;BME280_pressure;Samples;Min_cycle;Max_cycle;Signal;HPM_P1;HPM_P2
2022/10/02 00:02:36;;;;;;;8.60;7.80;;;14.80;53.20;;;;;;4993010;28;20454;-59
2022/10/02 00:05:05;;;;;;;8.43;8.03;;;14.70;53.00;;;;;;4992875;28;20425;-60
2022/10/02 00:07:48;;;;;;;9.37;8.70;;;14.70;53.30;;;;;;4992303;28;20428;-60
2022/10/02 00:10:30;;;;;;;9.10;8.53;;;14.70;53.00;;;;;;4992942;28;20782;-60
2022/10/02 00:13:06;;;;;;;8.60;8.07;;;14.70;52.90;;;;;;4992640;28;20412;-60
2022/10/02 00:15:34;;;;;;;7.87;7.47;;;14.60;53.10;;;;;;4992790;28;20792;-60
2022/10/02 00:18:12;;;;;;;8.30;7.80;;;14.70;53.60;;;;;;4992280;28;20427;-60
2022/10/02 00:21:04;;;;;;;9.17;8.67;;;14.70;53.50;;;;;;4992614;28;20800;-60
2022/10/02 00:23:40;;;;;;;8.87;8.17;;;14.80;53.60;;;;;;4992648;28;20412;-60
2022/10/02 00:26:09;;;;;;;8.40;7.93;;;14.70;53.50;;;;;;4992522;28;20815;-59
2022/10/02 00:28:50;;;;;;;9.17;8.53;;;14.70;54.40;;;;;;4991768;28;20470;-60
2022/10/02 00:31:21;;;;;;;7.73;7.33;;;14.70;53.90;;;;;;4991677;28;20428;-60
2022/10/02 00:34:26;;;;;;;9.80;7.70;;;14.70;54.50;;;;;;4991992;28;20767;-60
2022/10/02 00:37:11;;;;;;;7.50;7.17;;;14.80;54.80;;;;;;4975808;28;20525;-56
2022/10/02 00:39:55;;;;;;;8.40;7.80;;;14.80;54.80;;;;;;4992399;28;20439;-57
2022/10/02 00:42:53;;;;;;;8.30;7.57;;;14.90;54.80;;;;;;4992177;28;20921;-56
2022/10/02 00:45:53;;;;;;;8.40;7.90;;;14.90;54.80;;;;;;4991456;28;20436;-57
2022/10/02 00:48:25;;;;;;;8.03;7.73;;;14.80;53.80;;;;;;4991158;28;21023;-55
2022/10/02 00:51:03;;;;;;;7.87;7.43;;;14.70;55.00;;;;;;5010124;28;20434;-57
2022/10/02 00:53:35;;;;;;;8.50;7.80;;;14.70;54.10;;;;;;5011181;28;20446;-57
2022/10/02 00:56:18;;;;;;;7.53;7.13;;;14.60;54.80;;;;;;5011397;28;20481;-56
2022/10/02 00:58:50;;;;;;;11.70;7.20;;;14.50;54.80;;;;;;5011432;28;20675;-59
2022/10/02 01:01:21;;;;;;;8.40;7.67;;;14.50;55.20;;;;;;5011249;28;20438;-59
2022/10/02 01:03:55;;;;;;;7.00;6.50;;;14.40;55.30;;;;;;5011379;28;20428;-59
2022/10/02 01:06:27;;;;;;;6.77;6.50;;;14.40;55.50;;;;;;5011214;28;20466;-59
2022/10/02 01:08:53;;;;;;;8.03;7.40;;;14.40;55.30;;;;;;5028531;28;20843;-59
2022/10/02 01:11:21;;;;;;;7.53;7.23;;;14.40;56.00;;;;;;5011033;28;20415;-59
2022/10/02 01:13:47;;;;;;;7.33;6.93;;;14.30;56.30;;;;;;5011008;28;20783;-58
2022/10/02 01:16:13;;;;;;;6.80;6.60;;;14.30;56.40;;;;;;5010929;28;20419;-58
2022/10/02 01:18:40;;;;;;;7.60;7.10;;;14.30;56.70;;;;;;5011551;28;20422;-59
2022/10/02 01:21:32;;;;;;;7.47;7.07;;;14.20;56.90;;;;;;5010867;28;20788;-59
2022/10/02 01:24:16;;;;;;;7.13;6.43;;;14.20;57.10;;;;;;5011107;28;20815;-59
2022/10/02 01:26:42;;;;;;;6.87;6.50;;;14.20;57.10;;;;;;5028956;28;20830;-56
2022/10/02 01:29:07;;;;;;;7.30;7.00;;;14.20;57.60;;;;;;5011382;28;20420;-55
2022/10/02 01:31:34;;;;;;;7.60;7.20;;;14.20;57.60;;;;;;5010611;28;20544;-57
2022/10/02 01:34:01;;;;;;;7.80;7.40;;;14.20;57.80;;;;;;5011186;28;20184;-56
2022/10/02 01:36:27;;;;;;;8.17;7.53;;;14.20;57.80;;;;;;5011415;28;20515;-57
2022/10/02 01:38:53;;;;;;;8.03;7.53;;;14.20;58.00;;;;;;5010575;28;20807;-56
2022/10/02 01:41:19;;;;;;;6.90;6.50;;;14.30;57.80;;;;;;5011095;28;20419;-56
2022/10/02 01:43:49;;;;;;;8.10;7.33;;;14.30;57.50;;;;;;5010991;28;20446;-56
2022/10/02 01:46:31;;;;;;;8.03;7.53;;;14.30;57.70;;;;;;5010229;28;20728;-56
2022/10/02 01:49:18;;;;;;;7.00;6.70;;;14.40;57.90;;;;;;5010816;28;20810;-56
2022/10/02 01:51:43;;;;;;;7.80;7.20;;;14.40;57.30;;;;;;5010784;28;20912;-56
2022/10/02 01:54:21;;;;;;;7.43;7.00;;;14.40;58.00;;;;;;5010263;28;20464;-57
2022/10/02 01:56:57;;;;;;;7.10;6.70;;;14.50;57.80;;;;;;5014655;28;20177;-60
2022/10/02 01:59:42;;;;;;;7.03;6.63;;;14.60;57.30;;;;;;5014523;28;20431;-56
2022/10/02 02:02:31;;;;;;;7.30;7.00;;;14.70;57.00;;;;;;5014331;28;20893;-57
2022/10/02 02:05:07;;;;;;;8.13;7.73;;;14.70;55.70;;;;;;5013985;28;20415;-55
2022/10/02 02:11:10;;;;;;;7.97;7.47;;;14.60;56.90;;;;;;5032372;28;20792;-56
2022/10/02 02:13:55;;;;;;;7.67;7.40;;;14.70;56.60;;;;;;5014091;28;20423;-56
2022/10/02 02:16:38;;;;;;;8.80;8.00;;;14.80;56.20;;;;;;5014644;28;20415;-55
2022/10/02 02:19:23;;;;;;;8.47;7.83;;;14.80;55.60;;;;;;5014081;28;20423;-54
2022/10/02 02:22:03;;;;;;;7.80;7.50;;;14.80;55.60;;;;;;5013774;28;20427;-57
2022/10/02 02:24:41;;;;;;;8.30;7.90;;;14.80;55.60;;;;;;5014782;28;20427;-57
2022/10/02 02:27:13;;;;;;;8.77;8.10;;;14.90;55.70;;;;;;4997683;28;20482;-56
2022/10/02 02:29:42;;;;;;;8.33;7.80;;;14.90;55.70;;;;;;5013842;28;20420;-58
2022/10/02 02:32:12;;;;;;;8.10;7.70;;;14.90;55.30;;;;;;5014781;28;20537;-55
2022/10/02 02:34:59;;;;;;;8.30;7.80;;;15.00;55.60;;;;;;5014146;28;20450;-57
2022/10/02 02:37:29;;;;;;;9.10;8.40;;;15.00;55.10;;;;;;5013840;28;20438;-60
2022/10/02 02:40:03;;;;;;;8.67;8.27;;;15.00;55.10;;;;;;5013740;28;20445;-60
2022/10/02 02:42:32;;;;;;;9.00;8.60;;;15.00;55.10;;;;;;5031500;28;20415;-60
2022/10/02 02:45:01;;;;;;;8.77;8.23;;;15.00;54.80;;;;;;5032032;28;20435;-59
2022/10/02 02:47:39;;;;;;;9.30;8.80;;;15.00;54.70;;;;;;5013309;28;20463;-58
2022/10/02 02:50:13;;;;;;;8.17;7.80;;;14.90;54.70;;;;;;5013488;28;20977;-59
2022/10/02 02:52:58;;;;;;;8.77;8.47;;;14.90;55.00;;;;;;5014018;28;20421;-61
2022/10/02 02:55:31;;;;;;;9.53;8.83;;;15.00;55.10;;;;;;5013812;28;20540;-62
2022/10/02 02:58:23;;;;;;;8.87;8.43;;;15.00;55.30;;;;;;5012523;28;20470;-61
2022/10/02 03:00:49;;;;;;;8.47;8.17;;;15.00;55.10;;;;;;4983415;28;20522;-61
2022/10/02 03:03:15;;;;;;;9.07;8.60;;;15.00;55.20;;;;;;5013202;28;20443;-60
2022/10/02 03:05:47;;;;;;;9.13;8.63;;;15.00;55.90;;;;;;5013182;28;20204;-60
2022/10/02 03:08:27;;;;;;;8.60;8.20;;;15.00;55.20;;;;;;5012620;28;20184;-58
2022/10/02 03:11:04;;;;;;;9.07;8.67;;;15.00;54.70;;;;;;5013184;28;21010;-58
2022/10/02 03:13:30;;;;;;;10.93;10.30;;;15.00;54.80;;;;;;5012897;28;20419;-58
2022/10/02 03:15:56;;;;;;;9.57;8.90;;;14.90;55.00;;;;;;5013014;28;20829;-57
2022/10/02 03:18:38;;;;;;;8.20;7.90;;;14.70;55.60;;;;;;5012760;28;20215;-56
2022/10/02 03:21:27;;;;;;;7.77;7.47;;;14.80;56.10;;;;;;5013036;28;20246;-57
2022/10/02 03:24:04;;;;;;;8.50;8.07;;;14.80;55.60;;;;;;5003757;28;20427;-57
2022/10/02 03:26:44;;;;;;;8.23;7.83;;;14.80;55.60;;;;;;5013046;28;20481;-57
2022/10/02 03:29:48;;;;;;;7.57;7.20;;;14.90;55.70;;;;;;5012422;28;20774;-56
2022/10/02 03:32:16;;;;;;;7.83;7.53;;;14.90;55.40;;;;;;5009249;28;20471;-57
2022/10/02 03:34:42;;;;;;;8.57;8.17;;;15.00;55.50;;;;;;5012457;28;20426;-57
2022/10/02 03:37:07;;;;;;;8.57;8.27;;;15.00;55.20;;;;;;5030092;28;20498;-56
2022/10/02 03:39:33;;;;;;;8.30;7.83;;;14.80;55.60;;;;;;5012484;28;20904;-57
2022/10/02 03:41:59;;;;;;;9.10;8.53;;;14.90;55.70;;;;;;5030114;28;20181;-57
2022/10/02 03:44:25;;;;;;;8.30;8.00;;;14.90;55.70;;;;;;5013155;28;20247;-56
2022/10/02 03:46:51;;;;;;;9.00;8.40;;;14.90;55.70;;;;;;5012646;28;20459;-57
2022/10/02 03:49:16;;;;;;;8.60;8.20;;;14.90;55.70;;;;;;5013892;28;20191;-57
2022/10/02 03:51:42;;;;;;;9.27;8.77;;;14.90;55.70;;;;;;5012645;28;20188;-57
2022/10/02 03:54:19;;;;;;;8.57;7.83;;;14.80;56.20;;;;;;5012751;28;20218;-57
2022/10/02 03:56:57;;;;;;;8.83;8.30;;;14.90;56.40;;;;;;5012049;28;20191;-57
2022/10/02 03:59:39;;;;;;;7.97;7.27;;;14.90;56.00;;;;;;5012713;28;20449;-55
2022/10/02 04:02:11;;;;;;;7.80;7.20;;;14.90;55.70;;;;;;5011363;28;20847;-58
2022/10/02 04:04:46;;;;;;;7.80;7.40;;;14.90;55.70;;;;;;5013001;28;20493;-55
2022/10/02 04:07:22;;;;;;;8.50;7.90;;;15.00;55.80;;;;;;5012492;28;20498;-56
2022/10/02 04:10:01;;;;;;;7.93;7.43;;;15.00;55.80;;;;;;5012714;28;20419;-56
2022/10/02 04:12:35;;;;;;;8.10;7.80;;;15.00;55.80;;;;;;5012552;28;20457;-56
2022/10/02 04:15:23;;;;;;;8.80;8.30;;;15.00;55.80;;;;;;5012547;28;20786;-59
2022/10/02 04:17:58;;;;;;;8.30;7.90;;;15.00;55.60;;;;;;5012575;28;20415;-59
2022/10/02 04:20:42;;;;;;;9.00;8.30;;;15.00;55.50;;;;;;5012022;28;20418;-58
2022/10/02 04:23:35;;;;;;;8.67;8.30;;;15.00;54.80;;;;;;5013287;28;20423;-59
2022/10/02 04:26:12;;;;;;;9.43;9.00;;;15.00;54.50;;;;;;5012217;28;20486;-59
2022/10/02 04:28:47;;;;;;;8.10;7.70;;;15.00;54.40;;;;;;5013005;28;20422;-58
2022/10/02 04:31:13;;;;;;;7.90;7.40;;;15.00;54.10;;;;;;5012821;28;20934;-61
2022/10/02 04:33:39;;;;;;;9.23;8.40;;;14.90;53.90;;;;;;5013036;28;20511;-60
2022/10/02 04:36:14;;;;;;;8.40;8.10;;;14.70;54.90;;;;;;5013144;28;20264;-60
2022/10/02 04:39:08;;;;;;;8.23;7.97;;;14.60;55.40;;;;;;5013051;28;20422;-60
2022/10/02 04:41:57;;;;;;;8.00;7.60;;;14.60;55.40;;;;;;5011815;28;20765;-60
2022/10/02 04:44:49;;;;;;;7.43;7.10;;;14.70;55.90;;;;;;4977461;28;20424;-59
2022/10/02 04:47:46;;;;;;;8.30;7.63;;;14.80;55.60;;;;;;4993971;28;20482;-60
2022/10/02 04:50:48;;;;;;;8.97;8.37;;;14.80;55.60;;;;;;4993980;28;20431;-60
2022/10/02 04:53:38;;;;;;;8.87;8.17;;;14.90;55.70;;;;;;4994480;28;20417;-58
2022/10/02 04:56:16;;;;;;;7.73;7.33;;;14.90;55.70;;;;;;4994428;28;20859;-61
2022/10/02 04:58:52;;;;;;;8.30;7.90;;;14.90;55.40;;;;;;4994732;28;20427;-60
2022/10/02 05:01:40;;;;;;;8.00;7.40;;;15.00;55.00;;;;;;4993506;28;20420;-57
2022/10/02 05:04:34;;;;;;;8.40;7.80;;;14.90;54.90;;;;;;4994419;28;20483;-58
2022/10/02 05:07:35;;;;;;;7.90;7.50;;;14.90;54.80;;;;;;4994465;28;20512;-57
2022/10/02 05:10:19;;;;;;;8.60;8.10;;;14.90;54.70;;;;;;4994028;28;20420;-57
2022/10/02 05:13:11;;;;;;;8.40;8.00;;;14.90;54.50;;;;;;4994363;28;20775;-55
2022/10/02 05:15:58;;;;;;;8.20;7.80;;;14.90;54.30;;;;;;4989612;28;20514;-54
2022/10/02 05:19:13;;;;;;;8.40;8.00;;;15.00;54.20;;;;;;4994688;28;20435;-58
2022/10/02 05:22:16;;;;;;;8.70;8.13;;;15.00;54.00;;;;;;4973158;28;20794;-58
2022/10/02 05:25:20;;;;;;;7.77;7.50;;;15.00;53.60;;;;;;4995287;28;20436;-60
2022/10/02 05:28:04;;;;;;;8.27;7.87;;;15.00;53.40;;;;;;4992519;28;20428;-60
2022/10/02 05:31:03;;;;;;;7.97;7.60;;;15.00;53.10;;;;;;4993537;28;20515;-60
2022/10/02 05:33:32;;;;;;;8.17;7.87;;;15.00;53.40;;;;;;4977573;28;20504;-60
2022/10/02 05:36:06;;;;;;;8.80;8.40;;;15.00;53.40;;;;;;4992993;28;20397;-60
2022/10/02 05:38:41;;;;;;;9.70;8.97;;;15.00;53.20;;;;;;5003989;28;20411;-60
2022/10/02 05:41:21;;;;;;;9.00;8.27;;;15.00;53.10;;;;;;5011961;28;20541;-60
2022/10/02 05:43:59;;;;;;;7.87;7.63;;;15.00;53.40;;;;;;5012835;28;20425;-59
2022/10/02 05:46:27;;;;;;;7.67;7.30;;;14.90;53.70;;;;;;5013502;28;20537;-59
2022/10/02 05:49:01;;;;;;;8.17;7.60;;;15.00;53.60;;;;;;5012980;28;20407;-60
2022/10/02 05:51:50;;;;;;;8.00;7.50;;;15.00;53.60;;;;;;5030857;28;20521;-59
2022/10/02 05:54:44;;;;;;;7.77;7.50;;;15.00;53.50;;;;;;5013052;28;20745;-60
2022/10/02 05:57:10;;;;;;;8.90;8.50;;;15.00;53.70;;;;;;5013288;28;20411;-60
2022/10/02 06:00:05;;;;;;;8.90;8.20;;;15.00;53.90;;;;;;5013403;28;20494;-60
2022/10/02 06:02:40;;;;;;;7.57;7.27;;;15.00;54.00;;;;;;4996536;28;20836;-60
2022/10/02 06:05:22;;;;;;;7.63;7.33;;;14.90;54.10;;;;;;5012894;28;20414;-59
2022/10/02 06:07:51;;;;;;;8.67;7.97;;;14.90;54.00;;;;;;5013265;28;20430;-56
2022/10/02 06:10:22;;;;;;;8.80;8.20;;;14.90;54.10;;;;;;5012840;28;20462;-55
2022/10/02 06:12:54;;;;;;;9.17;8.67;;;14.90;54.20;;;;;;5013648;28;20515;-57
2022/10/02 06:15:32;;;;;;;9.70;8.80;;;14.90;54.60;;;;;;5013802;28;20415;-54
2022/10/02 06:18:06;;;;;;;8.70;8.20;;;14.90;54.80;;;;;;5013191;28;20457;-54
2022/10/02 06:20:35;;;;;;;9.87;8.30;;;15.00;55.00;;;;;;5012703;28;20424;-54
2022/10/02 06:23:15;;;;;;;8.13;7.70;;;15.00;55.20;;;;;;5012505;28;20760;-54
2022/10/02 06:25:47;;;;;;;7.43;7.03;;;15.00;55.00;;;;;;5012288;28;20974;-60
2022/10/02 06:28:31;;;;;;;8.93;8.43;;;14.90;55.70;;;;;;5013054;28;20412;-59
2022/10/02 06:31:16;;;;;;;8.60;8.00;;;14.90;56.40;;;;;;5012354;28;20458;-59
2022/10/02 06:33:42;;;;;;;9.83;9.03;;;14.90;56.40;;;;;;5013023;28;20457;-59
2022/10/02 06:36:12;;;;;;;9.27;8.37;;;14.90;56.50;;;;;;5011661;28;20416;-59
2022/10/02 06:38:59;;;;;;;8.10;7.70;;;14.90;56.40;;;;;;5012934;28;20411;-55
2022/10/02 06:42:03;;;;;;;8.40;7.90;;;14.90;56.80;;;;;;5013990;28;20419;-54
2022/10/02 06:44:47;;;;;;;8.90;8.23;;;15.00;56.90;;;;;;5015623;28;20414;-58
2022/10/02 06:47:16;;;;;;;8.30;7.70;;;15.00;56.70;;;;;;5015156;28;20465;-58
2022/10/02 06:50:31;;;;;;;8.10;7.77;;;15.00;56.60;;;;;;5015669;28;20896;-50
2022/10/02 06:53:21;;;;;;;7.57;7.27;;;15.00;56.60;;;;;;5015511;28;20453;-50
2022/10/02 06:56:17;;;;;;;9.53;8.67;;;15.00;56.80;;;;;;5015872;28;20502;-56
2022/10/02 06:59:06;;;;;;;8.30;7.90;;;15.00;56.60;;;;;;5015130;28;20415;-56
2022/10/02 07:01:53;;;;;;;8.40;8.00;;;15.00;56.50;;;;;;5015352;28;20426;-56
2022/10/02 07:04:34;;;;;;;8.53;7.93;;;15.00;56.60;;;;;;5015080;28;20418;-54
2022/10/02 07:07:35;;;;;;;8.30;7.73;;;15.00;56.60;;;;;;5014668;28;20533;-55
2022/10/02 07:10:24;;;;;;;7.90;7.30;;;14.90;56.60;;;;;;5014598;28;20443;-50
2022/10/02 07:13:38;;;;;;;8.20;7.80;;;14.90;57.00;;;;;;4975432;28;20442;-52
2022/10/02 07:16:10;;;;;;;8.93;8.33;;;14.90;57.10;;;;;;5008646;28;20416;-51
2022/10/02 07:19:00;;;;;;;8.40;8.10;;;15.00;56.40;;;;;;5015648;28;20498;-52
2022/10/02 07:21:30;;;;;;;8.40;8.00;;;15.00;56.50;;;;;;5015752;28;20439;-50
2022/10/02 07:24:25;;;;;;;8.33;7.93;;;14.80;57.20;;;;;;5015174;28;20869;-53
2022/10/02 07:27:02;;;;;;;7.83;7.53;;;14.80;58.00;;;;;;5015295;28;20485;-52
2022/10/02 07:29:59;;;;;;;8.73;8.13;;;14.80;58.50;;;;;;5015099;28;20403;-49
2022/10/02 07:32:50;;;;;;;7.77;7.33;;;14.80;58.80;;;;;;5008858;28;20419;-49
2022/10/02 07:35:37;;;;;;;8.17;7.67;;;14.80;59.10;;;;;;5015615;28;20422;-50
2022/10/02 07:38:41;;;;;;;8.17;7.77;;;14.90;59.00;;;;;;5015581;28;20422;-53
2022/10/02 07:41:43;;;;;;;8.70;8.30;;;14.90;58.40;;;;;;5009379;28;20438;-53
2022/10/02 07:44:38;;;;;;;7.80;7.30;;;14.90;58.70;;;;;;5013584;28;20783;-52
2022/10/02 07:47:18;;;;;;;8.50;7.90;;;14.90;58.90;;;;;;5000768;28;20459;-54
2022/10/02 07:50:02;;;;;;;9.00;8.20;;;14.90;58.70;;;;;;5002035;28;20831;-52
2022/10/02 07:52:54;;;;;;;8.27;7.80;;;14.90;58.60;;;;;;5012709;28;20419;-56
2022/10/02 07:55:22;;;;;;;8.70;8.20;;;15.00;58.40;;;;;;4998139;28;20437;-54
2022/10/02 07:58:02;;;;;;;8.27;7.87;;;14.90;58.50;;;;;;5013297;28;20446;-56
2022/10/02 08:00:35;;;;;;;9.07;8.47;;;14.90;59.10;;;;;;5044512;28;20415;-51
2022/10/02 08:03:07;;;;;;;8.07;7.77;;;14.90;59.40;;;;;;5011189;28;20574;-59
2022/10/02 08:05:44;;;;;;;9.17;8.67;;;14.90;59.10;;;;;;5010448;28;20422;-59
2022/10/02 08:08:37;;;;;;;8.10;7.60;;;14.90;58.80;;;;;;5046223;28;20952;-59
2022/10/02 08:11:12;;;;;;;9.70;8.77;;;14.80;59.40;;;;;;5012948;28;20547;-59
2022/10/02 08:13:53;;;;;;;8.67;8.10;;;14.90;60.00;;;;;;5046191;28;20443;-59
2022/10/02 08:16:21;;;;;;;8.80;8.17;;;14.90;58.80;;;;;;5012927;28;20422;-58
2022/10/02 08:19:00;;;;;;;8.60;8.07;;;14.90;58.50;;;;;;5012684;28;20910;-59
2022/10/02 08:21:29;;;;;;;8.10;7.50;;;14.90;59.10;;;;;;5014393;28;20856;-59
2022/10/02 08:24:09;;;;;;;9.23;8.53;;;14.90;59.00;;;;;;5014822;28;20411;-60
2022/10/02 08:26:43;;;;;;;8.60;8.00;;;15.00;59.00;;;;;;5015277;28;20463;-59
2022/10/02 08:29:18;;;;;;;9.90;9.20;;;15.00;58.70;;;;;;5047241;28;20783;-60
2022/10/02 08:31:44;;;;;;;8.57;8.10;;;15.00;58.40;;;;;;5014953;28;20997;-59
2022/10/02 08:34:21;;;;;;;8.90;8.13;;;15.00;58.80;;;;;;5014966;28;20530;-59
2022/10/02 08:37:18;;;;;;;7.97;7.57;;;14.80;60.10;;;;;;5014684;28;20181;-59
2022/10/02 08:39:44;;;;;;;8.67;7.90;;;14.80;60.80;;;;;;5005704;28;20415;-59
2022/10/02 08:42:10;;;;;;;8.03;7.63;;;14.80;61.20;;;;;;5047185;28;20477;-59
2022/10/02 08:45:13;;;;;;;8.80;8.20;;;14.80;61.60;;;;;;5047696;28;20688;-59
2022/10/02 08:48:17;;;;;;;8.23;7.80;;;14.90;61.50;;;;;;5047847;28;20707;-58
2022/10/02 08:51:16;;;;;;;7.73;7.27;;;14.90;60.40;;;;;;5014300;28;20407;-58
2022/10/02 08:54:16;;;;;;;8.40;8.00;;;14.90;60.50;;;;;;5014389;28;20422;-59
2022/10/02 08:57:13;;;;;;;7.73;7.30;;;15.00;59.90;;;;;;5047670;28;20421;-58
2022/10/02 08:59:45;;;;;;;8.63;8.10;;;15.00;60.00;;;;;;5014462;28;20481;-59
2022/10/02 09:02:56;;;;;;;8.00;7.50;;;15.10;60.20;;;;;;5031706;28;20415;-59
2022/10/02 09:05:38;;;;;;;8.73;8.00;;;15.20;60.30;;;;;;5014075;28;20411;-59
2022/10/02 09:08:07;;;;;;;8.70;7.90;;;15.20;59.70;;;;;;5046834;28;20427;-58
2022/10/02 09:11:00;;;;;;;7.30;6.90;;;15.10;59.40;;;;;;5046744;28;20413;-58
2022/10/02 09:13:54;;;;;;;9.23;8.40;;;15.00;59.90;;;;;;5047347;28;20442;-58
2022/10/02 09:16:28;;;;;;;9.10;8.30;;;15.00;59.90;;;;;;5013510;28;20423;-59
2022/10/02 09:19:33;;;;;;;8.80;8.17;;;15.00;60.20;;;;;;5047177;28;20454;-59
2022/10/02 09:22:39;;;;;;;8.30;7.90;;;15.00;60.50;;;;;;4980145;28;20782;-58
2022/10/02 09:25:11;;;;;;;8.90;8.20;;;15.00;60.60;;;;;;5013719;28;20419;-60
2022/10/02 09:28:12;;;;;;;9.20;8.50;;;15.10;60.20;;;;;;5046847;28;20469;-60
2022/10/02 09:30:50;;;;;;;7.80;7.20;;;15.00;59.90;;;;;;4974600;28;20434;-60
2022/10/02 09:33:57;;;;;;;7.50;6.90;;;15.10;59.90;;;;;;5010154;28;20430;-60
2022/10/02 09:36:44;;;;;;;8.60;8.00;;;15.20;59.70;;;;;;5012437;28;20419;-60
2022/10/02 09:39:35;;;;;;;8.03;7.10;;;15.20;59.50;;;;;;5013638;28;20427;-60
2022/10/02 09:42:09;;;;;;;10.33;9.43;;;15.20;60.10;;;;;;5013533;28;20407;-60
2022/10/02 09:45:10;;;;;;;7.90;7.40;;;15.30;60.20;;;;;;5013259;28;20435;-60
2022/10/02 09:47:38;;;;;;;7.70;7.20;;;15.40;60.40;;;;;;5013423;28;20468;-59
2022/10/02 09:50:55;;;;;;;8.63;8.07;;;15.40;60.00;;;;;;5013257;28;20691;-59
2022/10/02 09:53:45;;;;;;;8.60;7.90;;;15.50;59.30;;;;;;5012856;28;20416;-59
2022/10/02 09:56:45;;;;;;;8.50;7.80;;;15.50;59.30;;;;;;5013649;28;20903;-60
2022/10/02 09:59:32;;;;;;;8.27;7.47;;;15.60;58.80;;;;;;5012692;28;20778;-59
2022/10/02 10:02:13;;;;;;;8.00;7.60;;;15.50;58.90;;;;;;5012924;28;20430;-56
2022/10/02 10:05:08;;;;;;;7.97;7.47;;;15.50;59.40;;;;;;5012983;28;20911;-54
2022/10/02 10:07:55;;;;;;;8.93;8.43;;;15.60;59.10;;;;;;5013278;28;20528;-55
2022/10/02 10:11:00;;;;;;;7.70;7.10;;;15.50;58.30;;;;;;5012875;28;20425;-56
2022/10/02 10:13:49;;;;;;;8.93;8.37;;;15.50;57.70;;;;;;5012555;28;20411;-59
2022/10/02 10:16:37;;;;;;;8.30;7.63;;;15.50;57.80;;;;;;5014738;28;20434;-57
2022/10/02 10:19:21;;;;;;;7.83;7.20;;;15.50;57.90;;;;;;5011105;28;20502;-56
2022/10/02 10:22:25;;;;;;;8.77;8.27;;;15.50;58.00;;;;;;5015467;28;20419;-57
2022/10/02 10:25:09;;;;;;;8.30;7.80;;;15.50;58.90;;;;;;5015527;28;20423;-56
2022/10/02 10:28:12;;;;;;;7.27;6.77;;;15.50;58.90;;;;;;5014920;28;20470;-56
2022/10/02 10:30:38;;;;;;;7.20;6.80;;;15.50;57.90;;;;;;5015323;28;20419;-57
2022/10/02 10:33:23;;;;;;;7.10;6.80;;;15.50;58.20;;;;;;5014504;28;20415;-57
2022/10/02 10:39:29;;;;;;;7.40;7.10;;;15.40;58.90;;;;;;5007608;28;20778;-54
2022/10/02 10:42:01;;;;;;;7.00;6.70;;;15.40;58.40;;;;;;5015033;28;20423;-55
2022/10/02 10:44:52;;;;;;;10.30;9.40;;;15.50;58.30;;;;;;5014690;28;20427;-59
2022/10/02 10:47:45;;;;;;;12.93;11.67;;;15.50;58.80;;;;;;5015572;28;20975;-55
2022/10/02 10:50:37;;;;;;;8.00;7.27;;;15.60;59.70;;;;;;5014620;28;20978;-57
2022/10/02 10:53:12;;;;;;;6.30;6.10;;;15.50;59.60;;;;;;5015203;28;20473;-60
2022/10/02 10:56:05;;;;;;;6.13;5.93;;;15.50;59.00;;;;;;5032559;28;20817;-60
2022/10/02 10:59:21;;;;;;;5.87;5.67;;;15.50;58.00;;;;;;5014536;28;20431;-60
2022/10/02 11:01:56;;;;;;;6.37;6.17;;;15.40;57.90;;;;;;5016096;28;20415;-53
2022/10/02 11:04:44;;;;;;;6.60;6.30;;;15.40;58.00;;;;;;5014961;28;20805;-54
2022/10/02 11:07:09;;;;;;;7.60;7.10;;;15.40;57.70;;;;;;5013190;28;20474;-54
2022/10/02 11:10:14;;;;;;;6.60;6.40;;;15.40;57.10;;;;;;5014438;28;20419;-55
2022/10/02 11:12:52;;;;;;;6.93;6.73;;;15.40;57.10;;;;;;5014069;28;20199;-54
2022/10/02 11:15:39;;;;;;;6.57;6.20;;;15.40;58.00;;;;;;5014360;28;20510;-55
2022/10/02 11:18:34;;;;;;;7.10;6.77;;;15.30;57.40;;;;;;5014078;28;20412;-55
2022/10/02 11:21:14;;;;;;;7.37;7.13;;;15.40;57.00;;;;;;5013777;28;20935;-55
2022/10/02 11:24:12;;;;;;;7.80;7.60;;;15.40;57.00;;;;;;5031656;28;20489;-56
2022/10/02 11:27:14;;;;;;;6.70;6.50;;;15.30;58.00;;;;;;5012931;28;20467;-55
2022/10/02 11:30:04;;;;;;;7.40;7.20;;;15.30;58.00;;;;;;5010302;28;20431;-57
2022/10/02 11:32:43;;;;;;;6.93;6.70;;;15.30;58.10;;;;;;5013105;28;20410;-55
2022/10/02 11:35:25;;;;;;;6.87;6.57;;;15.30;58.10;;;;;;5013254;28;20423;-57
2022/10/02 11:37:54;;;;;;;7.00;6.70;;;15.30;57.00;;;;;;5014041;28;20419;-55
2022/10/02 11:40:38;;;;;;;7.03;6.83;;;15.30;56.40;;;;;;5012970;28;20497;-56
2022/10/02 11:43:22;;;;;;;6.30;6.10;;;15.30;56.40;;;;;;5012905;28;20427;-55
2022/10/02 11:46:00;;;;;;;6.37;6.17;;;15.30;56.10;;;;;;5012722;28;20459;-59
2022/10/02 11:48:39;;;;;;;6.20;6.00;;;15.10;56.10;;;;;;5012046;28;20423;-60
2022/10/02 11:51:23;;;;;;;6.70;6.50;;;15.20;56.80;;;;;;5012422;28;20415;-60
2022/10/02 11:54:10;;;;;;;7.10;6.90;;;15.20;56.90;;;;;;5013529;28;20908;-60
2022/10/02 11:57:10;;;;;;;6.40;6.20;;;15.20;56.50;;;;;;5013323;28;20895;-60
2022/10/02 11:59:41;;;;;;;6.77;6.57;;;15.20;56.00;;;;;;5014047;28;20426;-60
2022/10/02 12:02:38;;;;;;;6.60;6.40;;;15.20;56.00;;;;;;5013485;28;20912;-60
2022/10/02 12:05:20;;;;;;;8.30;7.90;;;15.20;56.00;;;;;;5014367;28;20432;-60
2022/10/02 12:08:00;;;;;;;7.00;6.80;;;15.20;55.80;;;;;;5013736;28;20521;-59
2022/10/02 12:10:55;;;;;;;6.77;6.57;;;15.30;56.10;;;;;;5013467;28;20431;-59
2022/10/02 12:13:45;;;;;;;6.33;6.20;;;15.30;56.10;;;;;;5013596;28;20407;-55
2022/10/02 12:16:27;;;;;;;6.40;6.20;;;15.30;56.10;;;;;;5003015;28;20428;-52
2022/10/02 12:26:57;;;;;;;6.20;6.00;;;15.30;56.10;;;;;;5010964;28;20420;-54
2022/10/02 12:28:23;;;;;;;6.20;6.00;;;15.20;57.70;;;;;;5011052;28;20430;-53
2022/10/02 12:31:18;;;;;;;6.20;6.00;;;15.30;57.10;;;;;;5009780;28;20421;-54
2022/10/02 12:34:12;;;;;;;6.30;6.10;;;15.30;56.80;;;;;;4983167;28;20186;-53
2022/10/02 12:37:04;;;;;;;6.30;6.10;;;15.30;56.30;;;;;;5009742;28;20423;-57
2022/10/02 12:40:00;;;;;;;6.07;5.87;;;15.30;57.00;;;;;;5008882;28;20916;-53
2022/10/02 12:43:04;;;;;;;7.23;7.03;;;15.30;57.40;;;;;;5009396;28;20427;-56
2022/10/02 12:46:12;;;;;;;6.07;5.87;;;15.20;57.40;;;;;;5009442;28;20854;-55
2022/10/02 12:48:44;;;;;;;6.37;6.17;;;15.30;58.20;;;;;;4999855;28;20503;-53
2022/10/02 12:51:37;;;;;;;6.10;5.90;;;15.30;58.80;;;;;;5009541;28;20416;-54
2022/10/02 12:54:21;;;;;;;6.03;5.83;;;15.30;59.00;;;;;;5008714;28;20562;-53
2022/10/02 12:57:05;;;;;;;6.53;6.20;;;15.30;59.20;;;;;;5008646;28;20403;-55
2022/10/02 12:59:54;;;;;;;5.00;4.90;;;15.30;59.50;;;;;;5008130;28;20457;-53
2022/10/02 13:02:49;;;;;;;5.30;5.20;;;15.30;59.10;;;;;;5009018;28;20458;-54
2022/10/02 13:05:42;;;;;;;5.33;5.13;;;15.20;58.90;;;;;;5009047;28;20847;-54
2022/10/02 13:08:26;;;;;;;4.93;4.83;;;15.10;59.70;;;;;;5009376;28;20443;-55
2022/10/02 13:11:07;;;;;;;5.70;5.50;;;15.20;60.40;;;;;;5009034;28;20412;-53
2022/10/02 13:13:53;;;;;;;5.30;5.20;;;15.10;60.90;;;;;;5008817;28;20404;-54
2022/10/02 13:16:45;;;;;;;5.53;5.43;;;15.10;61.00;;;;;;5008977;28;20439;-55
2022/10/02 13:19:29;;;;;;;5.37;5.23;;;15.20;60.30;;;;;;5008326;28;20419;-57
2022/10/02 13:22:06;;;;;;;5.30;5.20;;;15.20;59.60;;;;;;5008150;28;20424;-55
2022/10/02 13:24:59;;;;;;;5.70;5.60;;;15.20;59.30;;;;;;5008304;28;20431;-56
2022/10/02 13:27:43;;;;;;;5.60;5.50;;;15.20;59.40;;;;;;5008393;28;20551;-54
2022/10/02 13:30:22;;;;;;;6.07;5.87;;;15.20;59.20;;;;;;5008355;28;20420;-54
2022/10/02 13:32:56;;;;;;;5.40;5.30;;;15.00;60.60;;;;;;5008735;28;20499;-55
2022/10/02 13:35:52;;;;;;;5.30;5.20;;;15.00;61.00;;;;;;5008417;28;20423;-56
2022/10/02 13:38:22;;;;;;;5.50;5.30;;;15.00;60.10;;;;;;5008197;28;20739;-53
2022/10/02 13:41:26;;;;;;;5.20;5.10;;;15.00;61.40;;;;;;5008615;28;20511;-59
2022/10/02 13:43:58;;;;;;;5.07;4.97;;;15.00;61.50;;;;;;4997110;28;20794;-56
2022/10/02 13:46:35;;;;;;;4.90;4.80;;;15.10;61.50;;;;;;5009531;28;20460;-57
2022/10/02 13:49:19;;;;;;;4.67;4.57;;;15.10;61.30;;;;;;5008887;28;20414;-56
2022/10/02 13:51:48;;;;;;;5.40;5.20;;;15.10;60.80;;;;;;5011565;28;20507;-56
2022/10/02 13:54:32;;;;;;;5.40;5.20;;;15.20;60.90;;;;;;5012001;28;21045;-55
2022/10/02 13:57:18;;;;;;;4.97;4.80;;;15.10;60.10;;;;;;5012321;28;20409;-55
2022/10/02 14:00:06;;;;;;;5.30;5.10;;;15.10;60.10;;;;;;5011453;28;20976;-60
2022/10/02 14:03:20;;;;;;;5.60;5.40;;;15.10;60.20;;;;;;5012179;28;20515;-58
2022/10/02 14:05:52;;;;;;;5.13;4.97;;;15.10;60.40;;;;;;4988658;28;20507;-59
2022/10/02 14:08:51;;;;;;;4.80;4.70;;;15.20;59.50;;;;;;5011731;28;20840;-59
2022/10/02 14:11:29;;;;;;;5.90;5.70;;;15.20;58.20;;;;;;5010908;28;20504;-58
2022/10/02 14:14:08;;;;;;;5.50;5.40;;;15.20;58.10;;;;;;4994947;28;20845;-58
2022/10/02 14:16:52;;;;;;;5.80;5.60;;;15.20;57.40;;;;;;4996127;28;20419;-59
2022/10/02 14:19:51;;;;;;;5.73;5.53;;;15.20;56.60;;;;;;4995859;28;20554;-57